sensor_id;sensor_type;location;lat;lon;timestamp;pressure;altitude;pressure_sealevel;temperature;humidity
34081;BME280;20358;50.272;19.026;2022-12-18T00:00:24;99691.28;;;-5.98;62.68
34081;BME280;20358;50.272;19.026;2022-12-18T00:03:31;99698.13;;;-6.00;62.18
34081;BME280;20358;50.272;19.026;2022-12-18T00:06:41;99691.31;;;-5.95;62.11
34081;BME280;20358;50.272;19.026;2022-12-18T00:09:50;99695.69;;;-5.88;62.33
34081;BME280;20358;50.272;19.026;2022-12-18T00:12:56;99698.25;;;-5.89;61.69
34081;BME280;20358;50.272;19.026;2022-12-18T00:16:10;99704.28;;;-5.86;61.83
34081;BME280;20358;50.272;19.026;2022-12-18T00:19:17;99717.28;;;-5.77;61.16
34081;BME280;20358;50.272;19.026;2022-12-18T00:22:26;99720.63;;;-5.84;61.50
34081;BME280;20358;50.272;19.026;2022-12-18T00:25:33;99708.63;;;-5.82;61.71
34081;BME280;20358;50.272;19.026;2022-12-18T00:28:40;99706.84;;;-5.86;61.27
34081;BME280;20358;50.272;19.026;2022-12-18T00:31:46;99720.53;;;-5.90;62.05
34081;BME280;20358;50.272;19.026;2022-12-18T00:34:52;99712.09;;;-5.80;62.31
34081;BME280;20358;50.272;19.026;2022-12-18T00:38:01;99717.34;;;-5.71;61.70
34081;BME280;20358;50.272;19.026;2022-12-18T00:41:10;99719.03;;;-5.74;61.30
34081;BME280;20358;50.272;19.026;2022-12-18T00:44:38;99717.28;;;-5.77;61.31
34081;BME280;20358;50.272;19.026;2022-12-18T00:47:42;99736.19;;;-5.72;61.31
34081;BME280;20358;50.272;19.026;2022-12-18T00:50:48;99741.22;;;-5.81;61.11
34081;BME280;20358;50.272;19.026;2022-12-18T00:53:58;99741.22;;;-5.84;61.31
34081;BME280;20358;50.272;19.026;2022-12-18T00:57:03;99736.06;;;-5.81;61.49
34081;BME280;20358;50.272;19.026;2022-12-18T01:00:12;99751.59;;;-5.75;62.17
34081;BME280;20358;50.272;19.026;2022-12-18T01:03:19;99749.06;;;-5.70;61.39
34081;BME280;20358;50.272;19.026;2022-12-18T01:06:25;99760.28;;;-5.67;61.83
34081;BME280;20358;50.272;19.026;2022-12-18T01:09:34;99750.91;;;-5.61;61.45
34081;BME280;20358;50.272;19.026;2022-12-18T01:12:41;99760.44;;;-5.54;62.22
34081;BME280;20358;50.272;19.026;2022-12-18T01:15:48;99763.13;;;-5.45;60.94
34081;BME280;20358;50.272;19.026;2022-12-18T01:18:55;99757.16;;;-5.43;62.08
34081;BME280;20358;50.272;19.026;2022-12-18T01:22:01;99764.88;;;-5.41;61.25
34081;BME280;20358;50.272;19.026;2022-12-18T01:25:11;99758.69;;;-5.58;60.92
34081;BME280;20358;50.272;19.026;2022-12-18T01:28:17;99763.72;;;-5.64;60.71
34081;BME280;20358;50.272;19.026;2022-12-18T01:31:26;99772.31;;;-5.65;61.09
34081;BME280;20358;50.272;19.026;2022-12-18T01:34:37;99769.72;;;-5.67;61.48
34081;BME280;20358;50.272;19.026;2022-12-18T01:37:44;99773.03;;;-5.76;60.82
34081;BME280;20358;50.272;19.026;2022-12-18T01:40:56;99768.81;;;-5.71;61.06
34081;BME280;20358;50.272;19.026;2022-12-18T01:48:06;99774.03;;;-5.66;61.05
34081;BME280;20358;50.272;19.026;2022-12-18T01:51:15;99773.94;;;-5.74;61.55
34081;BME280;20358;50.272;19.026;2022-12-18T01:54:22;99786.78;;;-5.74;62.19
34081;BME280;20358;50.272;19.026;2022-12-18T01:57:31;99784.22;;;-5.74;61.29
34081;BME280;20358;50.272;19.026;2022-12-18T02:00:38;99789.41;;;-5.71;61.41
34081;BME280;20358;50.272;19.026;2022-12-18T02:03:45;99796.31;;;-5.65;61.68
34081;BME280;20358;50.272;19.026;2022-12-18T02:06:57;99799.75;;;-5.64;61.69
34081;BME280;20358;50.272;19.026;2022-12-18T02:10:17;99811.06;;;-5.55;61.69
34081;BME280;20358;50.272;19.026;2022-12-18T02:13:38;99813.75;;;-5.44;61.83
34081;BME280;20358;50.272;19.026;2022-12-18T02:16:55;99817.09;;;-5.51;61.47
34081;BME280;20358;50.272;19.026;2022-12-18T02:20:13;99817.22;;;-5.42;61.35
34081;BME280;20358;50.272;19.026;2022-12-18T02:23:46;99824.97;;;-5.42;61.92
34081;BME280;20358;50.272;19.026;2022-12-18T02:27:06;99831.84;;;-5.38;61.02
34081;BME280;20358;50.272;19.026;2022-12-18T02:30:15;99834.53;;;-5.32;61.76
34081;BME280;20358;50.272;19.026;2022-12-18T02:33:25;99836.09;;;-5.42;61.41
34081;BME280;20358;50.272;19.026;2022-12-18T02:36:38;99834.31;;;-5.47;61.04
34081;BME280;20358;50.272;19.026;2022-12-18T02:39:49;99833.47;;;-5.46;61.06
34081;BME280;20358;50.272;19.026;2022-12-18T02:43:07;99840.31;;;-5.48;61.98
34081;BME280;20358;50.272;19.026;2022-12-18T02:46:29;99846.28;;;-5.49;61.30
34081;BME280;20358;50.272;19.026;2022-12-18T02:49:51;99856.69;;;-5.43;61.19
34081;BME280;20358;50.272;19.026;2022-12-18T02:53:18;99856.66;;;-5.45;61.04
34081;BME280;20358;50.272;19.026;2022-12-18T02:56:38;99863.53;;;-5.45;61.15
34081;BME280;20358;50.272;19.026;2022-12-18T03:00:03;99858.41;;;-5.42;61.18
34081;BME280;20358;50.272;19.026;2022-12-18T03:03:21;99865.28;;;-5.41;61.12
34081;BME280;20358;50.272;19.026;2022-12-18T03:06:39;99872.22;;;-5.37;61.42
34081;BME280;20358;50.272;19.026;2022-12-18T03:09:52;99888.59;;;-5.31;62.40
34081;BME280;20358;50.272;19.026;2022-12-18T03:13:05;99886.06;;;-5.26;61.72
34081;BME280;20358;50.272;19.026;2022-12-18T03:16:24;99875.78;;;-5.26;61.02
34081;BME280;20358;50.272;19.026;2022-12-18T03:19:33;99877.41;;;-5.34;61.88
34081;BME280;20358;50.272;19.026;2022-12-18T03:22:45;99885.00;;;-5.45;61.95
34081;BME280;20358;50.272;19.026;2022-12-18T03:26:02;99840.00;;;-5.70;61.60
34081;BME280;20358;50.272;19.026;2022-12-18T03:29:21;99876.34;;;-5.50;61.58
34081;BME280;20358;50.272;19.026;2022-12-18T03:32:39;99880.66;;;-5.47;62.69
34081;BME280;20358;50.272;19.026;2022-12-18T03:35:51;99882.31;;;-5.49;62.35
34081;BME280;20358;50.272;19.026;2022-12-18T03:38:57;99890.75;;;-5.59;61.99
34081;BME280;20358;50.272;19.026;2022-12-18T03:42:10;99883.84;;;-5.63;62.12
34081;BME280;20358;50.272;19.026;2022-12-18T03:45:32;99886.38;;;-5.67;62.63
34081;BME280;20358;50.272;19.026;2022-12-18T03:48:51;99894.97;;;-5.64;62.62
34081;BME280;20358;50.272;19.026;2022-12-18T03:52:06;99893.22;;;-5.67;62.60
34081;BME280;20358;50.272;19.026;2022-12-18T03:55:19;99908.72;;;-5.65;62.96
34081;BME280;20358;50.272;19.026;2022-12-18T03:58:36;99915.44;;;-5.74;62.32
34081;BME280;20358;50.272;19.026;2022-12-18T04:02:00;99918.78;;;-5.79;62.91
34081;BME280;20358;50.272;19.026;2022-12-18T04:05:13;99917.09;;;-5.77;62.79
34081;BME280;20358;50.272;19.026;2022-12-18T04:08:23;99917.84;;;-5.84;62.77
34081;BME280;20358;50.272;19.026;2022-12-18T04:11:36;99924.69;;;-5.85;63.59
34081;BME280;20358;50.272;19.026;2022-12-18T04:14:43;99924.56;;;-5.94;63.37
34081;BME280;20358;50.272;19.026;2022-12-18T04:17:50;99927.97;;;-5.95;63.62
34081;BME280;20358;50.272;19.026;2022-12-18T04:21:02;99923.81;;;-5.85;63.55
34081;BME280;20358;50.272;19.026;2022-12-18T04:24:08;99934.22;;;-5.79;63.57
34081;BME280;20358;50.272;19.026;2022-12-18T04:27:21;99937.03;;;-5.65;63.30
34081;BME280;20358;50.272;19.026;2022-12-18T04:30:26;99940.66;;;-5.51;62.92
34081;BME280;20358;50.272;19.026;2022-12-18T04:33:34;99944.16;;;-5.46;62.69
34081;BME280;20358;50.272;19.026;2022-12-18T04:36:43;99940.81;;;-5.42;62.02
34081;BME280;20358;50.272;19.026;2022-12-18T04:39:50;99949.28;;;-5.48;62.42
34081;BME280;20358;50.272;19.026;2022-12-18T04:43:04;99951.88;;;-5.46;62.61
34081;BME280;20358;50.272;19.026;2022-12-18T04:46:11;99967.28;;;-5.49;61.93
34081;BME280;20358;50.272;19.026;2022-12-18T04:49:16;99959.44;;;-5.58;62.05
34081;BME280;20358;50.272;19.026;2022-12-18T04:52:25;99967.91;;;-5.62;63.13
34081;BME280;20358;50.272;19.026;2022-12-18T04:55:31;99967.78;;;-5.72;62.76
34081;BME280;20358;50.272;19.026;2022-12-18T04:58:39;99984.88;;;-5.77;63.10
34081;BME280;20358;50.272;19.026;2022-12-18T05:01:45;99983.78;;;-5.89;63.29
34081;BME280;20358;50.272;19.026;2022-12-18T05:04:52;99981.97;;;-5.95;63.37
34081;BME280;20358;50.272;19.026;2022-12-18T05:08:01;99983.66;;;-5.97;63.03
34081;BME280;20358;50.272;19.026;2022-12-18T05:11:09;99993.00;;;-6.02;63.56
34081;BME280;20358;50.272;19.026;2022-12-18T05:14:18;99984.09;;;-6.19;63.54
34081;BME280;20358;50.272;19.026;2022-12-18T05:17:24;99998.47;;;-6.30;64.13
34081;BME280;20358;50.272;19.026;2022-12-18T05:20:30;100011.56;;;-6.18;64.14
34081;BME280;20358;50.272;19.026;2022-12-18T05:23:39;99999.72;;;-6.10;64.52
34081;BME280;20358;50.272;19.026;2022-12-18T05:26:45;99998.22;;;-5.96;63.96
34081;BME280;20358;50.272;19.026;2022-12-18T05:29:52;100000.09;;;-5.89;63.39
34081;BME280;20358;50.272;19.026;2022-12-18T05:32:58;100006.22;;;-5.82;64.00
34081;BME280;20358;50.272;19.026;2022-12-18T05:36:06;100008.03;;;-5.75;63.70
34081;BME280;20358;50.272;19.026;2022-12-18T05:39:16;100013.19;;;-5.75;63.35
34081;BME280;20358;50.272;19.026;2022-12-18T05:42:22;100015.75;;;-5.77;62.96
34081;BME280;20358;50.272;19.026;2022-12-18T05:45:27;100027.72;;;-5.79;63.18
34081;BME280;20358;50.272;19.026;2022-12-18T05:48:34;100020.06;;;-5.76;63.35
34081;BME280;20358;50.272;19.026;2022-12-18T05:51:39;100026.16;;;-5.68;62.95
34081;BME280;20358;50.272;19.026;2022-12-18T05:54:48;100028.78;;;-5.66;62.93
34081;BME280;20358;50.272;19.026;2022-12-18T05:57:54;100023.72;;;-5.61;63.70
34081;BME280;20358;50.272;19.026;2022-12-18T06:01:07;100026.41;;;-5.55;63.07
34081;BME280;20358;50.272;19.026;2022-12-18T06:04:14;100030.69;;;-5.56;63.03
34081;BME280;20358;50.272;19.026;2022-12-18T06:07:20;100036.66;;;-5.58;62.44
34081;BME280;20358;50.272;19.026;2022-12-18T06:10:29;100034.03;;;-5.60;63.01
34081;BME280;20358;50.272;19.026;2022-12-18T06:13:35;100044.31;;;-5.60;63.10
34081;BME280;20358;50.272;19.026;2022-12-18T06:16:41;100045.09;;;-5.65;63.03
34081;BME280;20358;50.272;19.026;2022-12-18T06:19:47;100037.41;;;-5.64;62.98
34081;BME280;20358;50.272;19.026;2022-12-18T06:22:53;100044.25;;;-5.64;62.58
34081;BME280;20358;50.272;19.026;2022-12-18T06:26:05;100049.41;;;-5.64;62.75
34081;BME280;20358;50.272;19.026;2022-12-18T06:29:11;100050.28;;;-5.62;63.83
34081;BME280;20358;50.272;19.026;2022-12-18T06:32:18;100057.28;;;-5.55;62.97
34081;BME280;20358;50.272;19.026;2022-12-18T06:35:23;100066.00;;;-5.47;62.63
34081;BME280;20358;50.272;19.026;2022-12-18T06:38:31;100070.41;;;-5.40;62.45
34081;BME280;20358;50.272;19.026;2022-12-18T06:41:39;100071.16;;;-5.47;62.27
34081;BME280;20358;50.272;19.026;2022-12-18T06:44:45;100071.19;;;-5.44;63.25
34081;BME280;20358;50.272;19.026;2022-12-18T06:47:51;100078.13;;;-5.40;62.63
34081;BME280;20358;50.272;19.026;2022-12-18T06:50:58;100079.88;;;-5.39;62.00
34081;BME280;20358;50.272;19.026;2022-12-18T06:54:04;100087.69;;;-5.35;62.67
34081;BME280;20358;50.272;19.026;2022-12-18T06:57:13;100093.59;;;-5.40;61.84
34081;BME280;20358;50.272;19.026;2022-12-18T07:00:18;100097.75;;;-5.47;62.36
34081;BME280;20358;50.272;19.026;2022-12-18T07:03:25;100092.59;;;-5.48;62.55
34081;BME280;20358;50.272;19.026;2022-12-18T07:06:30;100099.44;;;-5.49;61.94
34081;BME280;20358;50.272;19.026;2022-12-18T07:09:37;100104.50;;;-5.55;62.18
34081;BME280;20358;50.272;19.026;2022-12-18T07:12:45;100111.25;;;-5.60;62.45
34081;BME280;20358;50.272;19.026;2022-12-18T07:15:52;100122.25;;;-5.69;62.82
34081;BME280;20358;50.272;19.026;2022-12-18T07:18:57;100122.13;;;-5.75;62.66
34081;BME280;20358;50.272;19.026;2022-12-18T07:22:04;100123.75;;;-5.80;62.42
34081;BME280;20358;50.272;19.026;2022-12-18T07:25:09;100133.91;;;-5.86;63.22
34081;BME280;20358;50.272;19.026;2022-12-18T07:28:18;100130.50;;;-5.85;63.28
34081;BME280;20358;50.272;19.026;2022-12-18T07:31:25;100140.88;;;-5.82;62.88
34081;BME280;20358;50.272;19.026;2022-12-18T07:34:33;100147.78;;;-5.78;62.72
34081;BME280;20358;50.272;19.026;2022-12-18T07:37:39;100141.03;;;-5.73;62.86
34081;BME280;20358;50.272;19.026;2022-12-18T07:40:45;100148.81;;;-5.70;62.73
34081;BME280;20358;50.272;19.026;2022-12-18T07:43:54;100154.84;;;-5.68;62.15
34081;BME280;20358;50.272;19.026;2022-12-18T07:47:00;100151.66;;;-5.57;61.84
34081;BME280;20358;50.272;19.026;2022-12-18T07:50:12;100145.72;;;-5.52;61.82
34081;BME280;20358;50.272;19.026;2022-12-18T07:53:18;100139.53;;;-5.61;61.14
34081;BME280;20358;50.272;19.026;2022-12-18T07:56:24;100145.47;;;-5.65;61.98
34081;BME280;20358;50.272;19.026;2022-12-18T07:59:44;100150.63;;;-5.65;61.57
34081;BME280;20358;50.272;19.026;2022-12-18T08:02:49;100145.38;;;-5.70;61.48
34081;BME280;20358;50.272;19.026;2022-12-18T08:05:59;100151.44;;;-5.67;61.39
34081;BME280;20358;50.272;19.026;2022-12-18T08:09:05;100147.25;;;-5.61;60.99
34081;BME280;20358;50.272;19.026;2022-12-18T08:12:11;100153.34;;;-5.56;60.75
34081;BME280;20358;50.272;19.026;2022-12-18T08:15:20;100142.25;;;-5.54;61.04
34081;BME280;20358;50.272;19.026;2022-12-18T08:18:29;100150.84;;;-5.53;60.57
34081;BME280;20358;50.272;19.026;2022-12-18T08:21:42;100158.63;;;-5.50;61.50
34081;BME280;20358;50.272;19.026;2022-12-18T08:24:48;100163.03;;;-5.45;60.58
34081;BME280;20358;50.272;19.026;2022-12-18T08:27:54;100165.69;;;-5.40;60.49
34081;BME280;20358;50.272;19.026;2022-12-18T08:31:05;100161.41;;;-5.40;60.81
34081;BME280;20358;50.272;19.026;2022-12-18T08:34:12;100164.88;;;-5.36;60.12
34081;BME280;20358;50.272;19.026;2022-12-18T08:37:18;100169.22;;;-5.34;60.21
34081;BME280;20358;50.272;19.026;2022-12-18T08:40:23;100184.72;;;-5.32;60.56
34081;BME280;20358;50.272;19.026;2022-12-18T08:43:29;100183.09;;;-5.27;60.00
34081;BME280;20358;50.272;19.026;2022-12-18T08:46:53;100182.28;;;-5.25;60.40
34081;BME280;20358;50.272;19.026;2022-12-18T08:50:00;100190.06;;;-5.22;60.08
34081;BME280;20358;50.272;19.026;2022-12-18T08:53:05;100193.50;;;-5.21;59.90
34081;BME280;20358;50.272;19.026;2022-12-18T08:56:13;100198.66;;;-5.21;60.13
34081;BME280;20358;50.272;19.026;2022-12-18T08:59:19;100187.25;;;-5.34;59.22
34081;BME280;20358;50.272;19.026;2022-12-18T09:02:29;100205.41;;;-5.26;60.10
34081;BME280;20358;50.272;19.026;2022-12-18T09:05:35;100214.97;;;-5.21;60.17
34081;BME280;20358;50.272;19.026;2022-12-18T09:08:41;100212.50;;;-5.16;59.02
34081;BME280;20358;50.272;19.026;2022-12-18T09:11:46;100217.66;;;-5.13;58.91
34081;BME280;20358;50.272;19.026;2022-12-18T09:14:53;100223.75;;;-5.11;59.44
34081;BME280;20358;50.272;19.026;2022-12-18T09:18:01;100231.63;;;-5.02;59.77
34081;BME280;20358;50.272;19.026;2022-12-18T09:21:09;100227.41;;;-4.98;59.28
34081;BME280;20358;50.272;19.026;2022-12-18T09:24:16;100224.91;;;-4.94;58.85
34081;BME280;20358;50.272;19.026;2022-12-18T09:27:23;100222.44;;;-4.88;59.20
34081;BME280;20358;50.272;19.026;2022-12-18T09:30:28;100214.00;;;-4.78;58.39
34081;BME280;20358;50.272;19.026;2022-12-18T09:33:39;100214.78;;;-4.82;58.72
34081;BME280;20358;50.272;19.026;2022-12-18T09:36:47;100220.06;;;-4.74;58.46
34081;BME280;20358;50.272;19.026;2022-12-18T09:39:53;100221.88;;;-4.69;58.11
34081;BME280;20358;50.272;19.026;2022-12-18T09:43:03;100227.03;;;-4.69;57.94
34081;BME280;20358;50.272;19.026;2022-12-18T09:46:19;100228.91;;;-4.59;58.23
34081;BME280;20358;50.272;19.026;2022-12-18T09:49:40;100230.81;;;-4.49;58.09
34081;BME280;20358;50.272;19.026;2022-12-18T09:52:54;100230.94;;;-4.39;57.88
34081;BME280;20358;50.272;19.026;2022-12-18T09:56:04;100225.84;;;-4.36;57.42
34081;BME280;20358;50.272;19.026;2022-12-18T09:59:21;100217.13;;;-4.43;56.32
34081;BME280;20358;50.272;19.026;2022-12-18T10:02:31;100231.06;;;-4.33;56.48
34081;BME280;20358;50.272;19.026;2022-12-18T10:05:54;100233.75;;;-4.26;57.63
34081;BME280;20358;50.272;19.026;2022-12-18T10:09:18;100228.59;;;-4.24;56.57
34081;BME280;20358;50.272;19.026;2022-12-18T10:12:42;100222.56;;;-4.26;56.57
34081;BME280;20358;50.272;19.026;2022-12-18T10:16:11;100224.38;;;-4.19;56.97
34081;BME280;20358;50.272;19.026;2022-12-18T10:19:39;100221.78;;;-4.19;56.78
34081;BME280;20358;50.272;19.026;2022-12-18T10:23:03;100220.97;;;-4.18;56.04
34081;BME280;20358;50.272;19.026;2022-12-18T10:26:19;100210.75;;;-4.09;56.65
34081;BME280;20358;50.272;19.026;2022-12-18T10:29:25;100207.50;;;-3.96;56.50
34081;BME280;20358;50.272;19.026;2022-12-18T10:32:31;100200.75;;;-3.85;56.90
34081;BME280;20358;50.272;19.026;2022-12-18T10:35:41;100194.06;;;-3.68;55.44
34081;BME280;20358;50.272;19.026;2022-12-18T10:38:52;100195.16;;;-3.51;56.54
34081;BME280;20358;50.272;19.026;2022-12-18T10:42:10;100194.50;;;-3.32;55.39
34081;BME280;20358;50.272;19.026;2022-12-18T10:45:22;100193.88;;;-3.09;55.85
34081;BME280;20358;50.272;19.026;2022-12-18T10:48:30;100191.44;;;-2.94;55.72
34081;BME280;20358;50.272;19.026;2022-12-18T10:51:37;100185.53;;;-2.78;54.28
34081;BME280;20358;50.272;19.026;2022-12-18T10:54:51;100191.59;;;-2.76;54.07
34081;BME280;20358;50.272;19.026;2022-12-18T10:58:18;100192.50;;;-2.73;52.73
34081;BME280;20358;50.272;19.026;2022-12-18T11:01:45;100180.44;;;-2.71;53.42
34081;BME280;20358;50.272;19.026;2022-12-18T11:04:54;100171.81;;;-2.73;52.55
34081;BME280;20358;50.272;19.026;2022-12-18T11:08:01;100124.97;;;-3.09;52.90
34081;BME280;20358;50.272;19.026;2022-12-18T11:11:20;100166.44;;;-2.94;53.14
34081;BME280;20358;50.272;19.026;2022-12-18T11:14:29;100176.69;;;-3.04;53.68
34081;BME280;20358;50.272;19.026;2022-12-18T11:17:39;100175.69;;;-3.19;53.60
34081;BME280;20358;50.272;19.026;2022-12-18T11:20:51;100160.09;;;-3.28;53.41
34081;BME280;20358;50.272;19.026;2022-12-18T11:24:00;100155.81;;;-3.27;53.49
34081;BME280;20358;50.272;19.026;2022-12-18T11:27:17;100167.03;;;-3.27;53.88
34081;BME280;20358;50.272;19.026;2022-12-18T11:30:26;100170.47;;;-3.25;54.34
34081;BME280;20358;50.272;19.026;2022-12-18T11:33:34;100167.94;;;-3.22;54.47
34081;BME280;20358;50.272;19.026;2022-12-18T11:37:03;100174.00;;;-3.17;53.37
34081;BME280;20358;50.272;19.026;2022-12-18T11:40:14;100179.22;;;-3.10;54.40
34081;BME280;20358;50.272;19.026;2022-12-18T11:43:31;100178.44;;;-3.00;54.01
34081;BME280;20358;50.272;19.026;2022-12-18T11:46:48;100188.84;;;-2.94;53.46
34081;BME280;20358;50.272;19.026;2022-12-18T11:50:03;100186.25;;;-2.94;53.32
34081;BME280;20358;50.272;19.026;2022-12-18T11:53:18;100187.19;;;-2.88;53.36
34081;BME280;20358;50.272;19.026;2022-12-18T11:56:32;100191.53;;;-2.82;53.88
34081;BME280;20358;50.272;19.026;2022-12-18T11:59:54;100191.56;;;-2.79;54.20
34081;BME280;20358;50.272;19.026;2022-12-18T12:03:39;100196.78;;;-2.73;53.52
34081;BME280;20358;50.272;19.026;2022-12-18T12:07:16;100193.34;;;-2.75;53.49
34081;BME280;20358;50.272;19.026;2022-12-18T12:10:45;100200.16;;;-2.82;53.48
34081;BME280;20358;50.272;19.026;2022-12-18T12:14:16;100198.34;;;-2.93;53.48
34081;BME280;20358;50.272;19.026;2022-12-18T12:17:45;100193.03;;;-3.05;52.99
34081;BME280;20358;50.272;19.026;2022-12-18T12:21:06;100203.25;;;-3.18;53.46
34081;BME280;20358;50.272;19.026;2022-12-18T12:24:32;100198.06;;;-3.21;53.53
34081;BME280;20358;50.272;19.026;2022-12-18T12:28:00;100195.31;;;-3.34;53.29
34081;BME280;20358;50.272;19.026;2022-12-18T12:31:31;100199.53;;;-3.44;54.25
34081;BME280;20358;50.272;19.026;2022-12-18T12:35:12;100207.31;;;-3.42;54.55
34081;BME280;20358;50.272;19.026;2022-12-18T12:38:37;100211.56;;;-3.46;53.59
34081;BME280;20358;50.272;19.026;2022-12-18T12:41:53;100213.19;;;-3.54;54.30
34081;BME280;20358;50.272;19.026;2022-12-18T12:45:21;100202.75;;;-3.66;53.83
34081;BME280;20358;50.272;19.026;2022-12-18T12:48:41;100206.06;;;-3.73;54.81
34081;BME280;20358;50.272;19.026;2022-12-18T12:52:04;100213.81;;;-3.76;54.04
34081;BME280;20358;50.272;19.026;2022-12-18T12:55:19;100212.84;;;-3.84;53.75
34081;BME280;20358;50.272;19.026;2022-12-18T12:58:36;100207.59;;;-3.90;54.33
34081;BME280;20358;50.272;19.026;2022-12-18T13:01:57;100217.06;;;-3.88;53.81
34081;BME280;20358;50.272;19.026;2022-12-18T13:05:19;100217.13;;;-3.83;54.48
34081;BME280;20358;50.272;19.026;2022-12-18T13:08:52;100216.25;;;-3.85;53.90
34081;BME280;20358;50.272;19.026;2022-12-18T13:12:08;100215.34;;;-3.89;54.27
34081;BME280;20358;50.272;19.026;2022-12-18T13:15:45;100222.94;;;-3.99;53.40
34081;BME280;20358;50.272;19.026;2022-12-18T13:18:56;100230.56;;;-4.10;54.06
34081;BME280;20358;50.272;19.026;2022-12-18T13:22:02;100233.97;;;-4.11;54.49
34081;BME280;20358;50.272;19.026;2022-12-18T13:25:39;100231.41;;;-4.09;54.65
34081;BME280;20358;50.272;19.026;2022-12-18T13:28:53;100238.25;;;-4.11;54.99
34081;BME280;20358;50.272;19.026;2022-12-18T13:32:01;100237.38;;;-4.13;54.83
34081;BME280;20358;50.272;19.026;2022-12-18T13:35:37;100240.81;;;-4.13;55.28
34081;BME280;20358;50.272;19.026;2022-12-18T13:38:46;100241.69;;;-4.12;54.79
34081;BME280;20358;50.272;19.026;2022-12-18T13:46:06;100241.66;;;-4.15;55.18
34081;BME280;20358;50.272;19.026;2022-12-18T13:49:31;100247.63;;;-4.16;54.66
34081;BME280;20358;50.272;19.026;2022-12-18T13:52:43;100248.47;;;-4.17;55.18
34081;BME280;20358;50.272;19.026;2022-12-18T13:55:49;100251.91;;;-4.18;54.73
34081;BME280;20358;50.272;19.026;2022-12-18T13:59:15;100248.47;;;-4.20;54.91
34081;BME280;20358;50.272;19.026;2022-12-18T14:02:27;100248.41;;;-4.23;53.91
34081;BME280;20358;50.272;19.026;2022-12-18T14:05:37;100238.84;;;-4.29;54.99
34081;BME280;20358;50.272;19.026;2022-12-18T14:08:46;100236.28;;;-4.30;54.28
34081;BME280;20358;50.272;19.026;2022-12-18T14:11:55;100243.03;;;-4.35;54.77
34081;BME280;20358;50.272;19.026;2022-12-18T14:15:32;100237.81;;;-4.42;54.66
34081;BME280;20358;50.272;19.026;2022-12-18T14:18:46;100248.00;;;-4.48;54.84
34081;BME280;20358;50.272;19.026;2022-12-18T14:22:09;100238.44;;;-4.55;55.66
34081;BME280;20358;50.272;19.026;2022-12-18T14:25:22;100240.91;;;-4.61;55.77
34081;BME280;20358;50.272;19.026;2022-12-18T14:28:30;100248.56;;;-4.67;55.09
34081;BME280;20358;50.272;19.026;2022-12-18T14:31:39;100235.56;;;-4.73;55.86
34081;BME280;20358;50.272;19.026;2022-12-18T14:34:46;100236.31;;;-4.80;55.18
34081;BME280;20358;50.272;19.026;2022-12-18T14:38:17;100244.63;;;-4.94;55.81
34081;BME280;20358;50.272;19.026;2022-12-18T14:41:29;100250.50;;;-5.03;55.72
34081;BME280;20358;50.272;19.026;2022-12-18T14:44:36;100246.00;;;-5.15;56.34
34081;BME280;20358;50.272;19.026;2022-12-18T14:48:16;100258.72;;;-5.22;56.02
34081;BME280;20358;50.272;19.026;2022-12-18T14:51:33;100260.34;;;-5.27;56.89
34081;BME280;20358;50.272;19.026;2022-12-18T14:54:46;100254.97;;;-5.39;56.26
34081;BME280;20358;50.272;19.026;2022-12-18T14:57:56;100267.06;;;-5.35;56.77
34081;BME280;20358;50.272;19.026;2022-12-18T15:01:09;100270.41;;;-5.39;56.82
34081;BME280;20358;50.272;19.026;2022-12-18T15:04:29;100270.28;;;-5.45;56.35
34081;BME280;20358;50.272;19.026;2022-12-18T15:07:40;100273.63;;;-5.49;56.27
34081;BME280;20358;50.272;19.026;2022-12-18T15:10:48;100285.53;;;-5.54;57.16
34081;BME280;20358;50.272;19.026;2022-12-18T15:13:53;100284.56;;;-5.61;56.66
34081;BME280;20358;50.272;19.026;2022-12-18T15:17:03;100281.81;;;-5.69;56.70
34081;BME280;20358;50.272;19.026;2022-12-18T15:20:14;100279.97;;;-5.76;57.26
34081;BME280;20358;50.272;19.026;2022-12-18T15:23:23;100290.13;;;-5.80;57.38
34081;BME280;20358;50.272;19.026;2022-12-18T15:26:37;100281.50;;;-5.84;57.67
34081;BME280;20358;50.272;19.026;2022-12-18T15:29:59;100294.22;;;-5.88;57.60
34081;BME280;20358;50.272;19.026;2022-12-18T15:33:24;100289.84;;;-5.94;57.28
34081;BME280;20358;50.272;19.026;2022-12-18T15:36:35;100295.66;;;-6.01;57.48
34081;BME280;20358;50.272;19.026;2022-12-18T15:39:40;100294.69;;;-6.06;57.42
34081;BME280;20358;50.272;19.026;2022-12-18T15:42:47;100296.28;;;-6.11;58.31
34081;BME280;20358;50.272;19.026;2022-12-18T15:46:13;100308.19;;;-6.16;58.07
34081;BME280;20358;50.272;19.026;2022-12-18T15:49:22;100299.47;;;-6.21;57.69
34081;BME280;20358;50.272;19.026;2022-12-18T15:52:39;100297.69;;;-6.25;58.21
34081;BME280;20358;50.272;19.026;2022-12-18T15:55:47;100304.44;;;-6.30;58.13
34081;BME280;20358;50.272;19.026;2022-12-18T15:59:11;100278.19;;;-6.51;58.43
34081;BME280;20358;50.272;19.026;2022-12-18T16:02:20;100305.94;;;-6.38;58.57
34081;BME280;20358;50.272;19.026;2022-12-18T16:05:27;100272.59;;;-6.69;58.78
34081;BME280;20358;50.272;19.026;2022-12-18T16:08:37;100319.44;;;-6.45;58.54
34081;BME280;20358;50.272;19.026;2022-12-18T16:11:43;100317.66;;;-6.49;58.88
34081;BME280;20358;50.272;19.026;2022-12-18T16:14:50;100320.16;;;-6.51;59.02
34081;BME280;20358;50.272;19.026;2022-12-18T16:17:56;100319.31;;;-6.51;59.09
34081;BME280;20358;50.272;19.026;2022-12-18T16:21:02;100326.09;;;-6.53;58.52
34081;BME280;20358;50.272;19.026;2022-12-18T16:24:14;100321.69;;;-6.59;58.94
34081;BME280;20358;50.272;19.026;2022-12-18T16:27:22;100323.38;;;-6.59;59.19
34081;BME280;20358;50.272;19.026;2022-12-18T16:30:30;100324.09;;;-6.65;59.44
34081;BME280;20358;50.272;19.026;2022-12-18T16:33:40;100325.72;;;-6.68;59.28
34081;BME280;20358;50.272;19.026;2022-12-18T16:36:45;100323.91;;;-6.72;59.29
34081;BME280;20358;50.272;19.026;2022-12-18T16:39:55;100322.91;;;-6.77;59.29
34081;BME280;20358;50.272;19.026;2022-12-18T16:43:01;100330.53;;;-6.80;59.56